createdAt,value
2022-09-23T00:18:46.657Z,5.72
2022-09-23T00:21:19.577Z,5.58
2022-09-23T00:23:46.773Z,5.05
2022-09-23T00:26:16.341Z,5.42
2022-09-23T00:28:44.021Z,5.13
2022-09-23T00:31:16.832Z,5.54
2022-09-23T00:33:43.626Z,5.51
2022-09-23T00:36:12.254Z,5.57
2022-09-23T00:38:41.654Z,5.09
2022-09-23T00:41:10.542Z,5.33
2022-09-23T00:43:50.289Z,5.65
2022-09-23T00:46:35.748Z,5.33
2022-09-23T00:49:10.796Z,5.25
2022-09-23T00:51:43.754Z,5.58
2022-09-23T00:54:11.631Z,5.59
2022-09-23T00:56:39.864Z,5.39
2022-09-23T00:59:09.835Z,5.41
2022-09-23T01:01:38.789Z,5.70
2022-09-23T01:04:25.455Z,6.22
2022-09-23T01:06:55.001Z,5.57
2022-09-23T01:09:27.195Z,5.90
2022-09-23T01:12:32.805Z,6.08
2022-09-23T01:15:29.837Z,5.23
2022-09-23T01:18:39.445Z,5.35
2022-09-23T01:21:29.222Z,4.67
2022-09-23T01:24:11.034Z,5.22
2022-09-23T01:26:41.046Z,5.38
2022-09-23T01:29:44.496Z,5.27
2022-09-23T01:32:38.966Z,5.85
2022-09-23T01:35:25.266Z,5.78
2022-09-23T01:38:10.435Z,5.02
2022-09-23T01:41:07.968Z,5.29
2022-09-23T01:43:48.487Z,5.74
2022-09-23T01:46:34.066Z,5.77
2022-09-23T01:49:15.655Z,4.95
2022-09-23T01:51:51.978Z,5.46
2022-09-23T01:54:37.930Z,6.04
2022-09-23T01:57:15.645Z,5.15
2022-09-23T01:59:54.142Z,5.58
2022-09-23T02:02:39.279Z,4.61
2022-09-23T02:05:49.716Z,4.89
2022-09-23T02:08:41.487Z,4.96
2022-09-23T02:11:18.595Z,4.87
2022-09-23T02:13:58.292Z,4.44
2022-09-23T02:16:46.200Z,4.50
2022-09-23T02:19:15.658Z,4.83
2022-09-23T02:21:50.212Z,4.66
2022-09-23T02:24:26.207Z,4.62
2022-09-23T02:26:58.918Z,4.47
2022-09-23T02:29:43.217Z,4.81
2022-09-23T02:32:33.241Z,4.52
2022-09-23T02:35:33.793Z,4.36
2022-09-23T02:38:12.319Z,4.53
2022-09-23T02:40:51.011Z,4.60
2022-09-23T02:43:54.317Z,4.16
2022-09-23T02:46:23.229Z,4.37
2022-09-23T02:48:55.528Z,5.28
2022-09-23T02:51:25.364Z,4.49
2022-09-23T02:53:55.896Z,4.42
2022-09-23T02:56:22.375Z,4.42
2022-09-23T02:58:51.863Z,4.59
2022-09-23T03:01:19.013Z,4.48
2022-09-23T03:04:06.856Z,4.44
2022-09-23T03:06:45.509Z,4.83
2022-09-23T03:09:22.441Z,5.09
2022-09-23T03:11:59.295Z,4.34
2022-09-23T03:14:33.294Z,4.46
2022-09-23T03:17:15.998Z,4.40
2022-09-23T03:20:10.037Z,5.07
2022-09-23T03:22:48.621Z,4.65
2022-09-23T03:25:19.707Z,5.04
2022-09-23T03:27:46.126Z,5.22
2022-09-23T03:30:13.778Z,5.05
2022-09-23T03:32:45.520Z,4.67
2022-09-23T03:35:13.368Z,4.28
2022-09-23T03:37:47.133Z,4.09
2022-09-23T03:40:24.010Z,4.63
2022-09-23T03:42:51.442Z,4.47
2022-09-23T03:45:22.006Z,4.02
2022-09-23T03:47:48.457Z,4.45
2022-09-23T03:50:17.293Z,4.44
2022-09-23T03:52:44.373Z,4.73
2022-09-23T03:55:11.507Z,4.51
2022-09-23T03:57:38.368Z,4.70
2022-09-23T04:00:08.109Z,4.22
2022-09-23T04:02:34.700Z,4.54
2022-09-23T04:05:01.271Z,3.96
2022-09-23T04:07:28.177Z,4.34
2022-09-23T04:09:55.080Z,4.28
2022-09-23T04:12:21.591Z,4.25
2022-09-23T04:14:48.309Z,4.71
2022-09-23T04:17:14.959Z,4.73
2022-09-23T04:19:41.428Z,4.32
2022-09-23T04:22:08.726Z,4.62
2022-09-23T04:24:40.220Z,4.61
2022-09-23T04:27:06.659Z,4.37
2022-09-23T04:29:33.130Z,3.91
2022-09-23T04:31:59.757Z,3.93
2022-09-23T04:34:26.284Z,4.40
2022-09-23T04:36:55.776Z,3.82
2022-09-23T04:39:22.399Z,4.09
2022-09-23T04:41:48.827Z,4.09
2022-09-23T04:44:15.783Z,4.04
2022-09-23T04:46:44.050Z,4.31
2022-09-23T04:49:10.949Z,4.07
2022-09-23T04:51:37.503Z,4.18
2022-09-23T04:54:04.094Z,4.49
2022-09-23T04:56:32.746Z,3.44
2022-09-23T05:09:57.771Z,4.24
2022-09-23T05:17:28.651Z,4.78
2022-09-23T05:20:43.520Z,3.55
2022-09-23T05:24:24.874Z,4.31
2022-09-23T05:33:53.285Z,3.66
2022-09-23T05:36:21.589Z,4.25
2022-09-23T05:38:50.070Z,3.95
2022-09-23T05:41:18.228Z,4.32
2022-09-23T05:43:44.970Z,4.33
2022-09-23T05:46:12.613Z,4.46
2022-09-23T05:48:40.303Z,4.20
2022-09-23T05:51:13.075Z,4.30
2022-09-23T05:53:41.726Z,4.72
2022-09-23T05:56:08.291Z,4.36
2022-09-23T05:58:34.967Z,4.58
2022-09-23T06:01:01.596Z,4.82
2022-09-23T06:03:28.231Z,5.08
2022-09-23T06:05:55.478Z,5.33
2022-09-23T06:08:23.299Z,5.17
2022-09-23T06:10:54.328Z,4.95
2022-09-23T06:13:23.775Z,4.85
2022-09-23T06:15:54.044Z,5.38
2022-09-23T06:18:20.811Z,5.41
2022-09-23T06:20:48.264Z,5.85
2022-09-23T06:23:14.933Z,5.32
2022-09-23T06:25:44.065Z,5.53
2022-09-23T06:28:15.385Z,5.24
2022-09-23T06:30:42.765Z,5.94
2022-09-23T06:33:10.185Z,5.60
2022-09-23T06:35:37.044Z,5.84
2022-09-23T06:38:05.222Z,6.05
2022-09-23T06:40:35.683Z,5.67
2022-09-23T06:43:19.497Z,5.77
2022-09-23T06:45:46.299Z,6.26
2022-09-23T06:48:18.174Z,6.50
2022-09-23T06:50:46.914Z,6.15
2022-09-23T06:53:13.653Z,6.58
2022-09-23T06:56:01.140Z,6.87
2022-09-23T06:58:31.849Z,6.47
2022-09-23T07:01:09.665Z,6.99
2022-09-23T07:03:37.121Z,7.25
2022-09-23T07:06:04.327Z,7.32
2022-09-23T07:08:37.964Z,7.44
2022-09-23T07:11:24.155Z,7.62
2022-09-23T07:13:50.936Z,7.75
2022-09-23T07:27:02.604Z,8.32
2022-09-23T07:37:10.746Z,9.27
2022-09-23T08:20:42.594Z,10.99
2022-09-23T08:23:14.412Z,10.86
2022-09-23T08:25:46.859Z,10.74
2022-09-23T08:28:45.741Z,11.27
2022-09-23T08:33:56.066Z,11.39
2022-09-23T09:15:15.675Z,12.18
2022-09-23T09:33:47.218Z,12.44
2022-09-23T09:49:18.841Z,13.02
2022-09-23T10:09:23.115Z,13.59
2022-09-23T10:15:46.839Z,13.18
2022-09-23T10:23:38.543Z,13.56
2022-09-23T11:52:51.232Z,14.69
2022-09-23T11:56:32.832Z,14.71
2022-09-23T11:59:40.209Z,13.94
2022-09-23T12:03:01.717Z,14.27
2022-09-23T12:06:44.355Z,14.56
2022-09-23T12:11:40.362Z,14.75
2022-09-23T12:17:58.732Z,15.09
2022-09-23T12:28:51.885Z,15.18
2022-09-23T12:31:24.710Z,15.07
2022-09-23T12:41:50.231Z,15.07
2022-09-23T12:45:26.269Z,15.08
2022-09-23T12:51:32.095Z,15.40
2022-09-23T12:54:04.472Z,14.90
2022-09-23T12:56:41.152Z,15.38
2022-09-23T13:00:06.464Z,15.60
2022-09-23T13:41:01.417Z,15.62
2022-09-23T13:43:34.723Z,15.56
2022-09-23T14:19:18.615Z,16.35
2022-09-23T14:21:55.977Z,16.52
2022-09-23T14:25:25.177Z,16.41
2022-09-23T14:38:41.833Z,15.87
2022-09-23T14:41:25.186Z,15.25
2022-09-23T14:43:58.889Z,15.47
2022-09-23T14:46:31.077Z,15.95
2022-09-23T14:49:03.080Z,15.58
2022-09-23T14:51:34.053Z,15.88
2022-09-23T14:54:38.095Z,15.74
2022-09-23T14:57:48.980Z,15.69
2022-09-23T15:00:27.771Z,15.64
2022-09-23T15:03:02.620Z,15.17
2022-09-23T15:05:45.005Z,14.76
2022-09-23T15:08:18.699Z,15.10
2022-09-23T15:10:46.265Z,15.14
2022-09-23T15:13:19.891Z,14.76
2022-09-23T15:15:47.250Z,14.84
2022-09-23T15:18:24.955Z,14.77
2022-09-23T15:20:53.839Z,14.51
2022-09-23T15:23:43.318Z,14.79
2022-09-23T15:26:12.491Z,14.72
2022-09-23T15:28:39.418Z,14.35
2022-09-23T15:31:06.237Z,14.34
2022-09-23T15:33:33.733Z,14.63
2022-09-23T15:36:00.282Z,14.44
2022-09-23T15:38:29.671Z,14.38
2022-09-23T15:40:56.441Z,14.59
2022-09-23T15:43:27.070Z,14.61
2022-09-23T15:45:57.756Z,14.05
2022-09-23T15:48:39.608Z,13.91
2022-09-23T15:51:09.393Z,14.00
2022-09-23T15:53:38.143Z,13.95
2022-09-23T15:56:05.341Z,14.26
2022-09-23T15:58:32.484Z,14.03
2022-09-23T16:00:59.905Z,14.09
2022-09-23T16:03:33.557Z,14.07
2022-09-23T16:06:03.367Z,14.08
2022-09-23T16:08:36.532Z,13.88
2022-09-23T16:11:03.384Z,13.99
2022-09-23T16:13:29.930Z,13.88
2022-09-23T16:16:27.930Z,13.73
2022-09-23T16:18:55.364Z,13.50
2022-09-23T16:25:31.848Z,13.63
2022-09-23T16:27:59.019Z,13.28
2022-09-23T16:30:30.761Z,13.07
2022-09-23T16:33:25.261Z,13.14
2022-09-23T16:35:51.936Z,12.91
2022-09-23T16:38:18.440Z,13.11
2022-09-23T16:40:47.861Z,13.21
2022-09-23T16:43:17.122Z,13.12
2022-09-23T16:45:46.595Z,12.72
2022-09-23T16:48:13.704Z,12.74
2022-09-23T16:50:40.600Z,12.59
2022-09-23T16:53:07.179Z,12.96
2022-09-23T16:55:33.716Z,12.57
2022-09-23T17:00:59.677Z,12.74
2022-09-23T17:03:47.366Z,12.78
2022-09-23T17:06:14.644Z,12.29
2022-09-23T17:08:42.577Z,12.40
2022-09-23T17:11:14.461Z,12.22
2022-09-23T17:13:42.420Z,12.16
2022-09-23T17:16:11.959Z,12.18
2022-09-23T17:18:39.148Z,12.05
2022-09-23T17:21:07.865Z,12.06
2022-09-23T17:23:36.554Z,11.92
2022-09-23T17:30:45.875Z,11.38
2022-09-23T17:33:30.021Z,11.30
2022-09-23T17:36:01.263Z,11.28
2022-09-23T17:38:33.663Z,11.26
2022-09-23T17:47:48.040Z,10.96
2022-09-23T17:50:15.001Z,11.04
2022-09-23T17:52:41.696Z,10.85
2022-09-23T17:55:17.136Z,10.93
2022-09-23T17:58:32.056Z,10.64
2022-09-23T18:00:59.441Z,10.75
2022-09-23T18:03:27.946Z,10.73
2022-09-23T18:06:57.268Z,10.61
2022-09-23T18:20:50.475Z,10.21
2022-09-23T21:00:52.879Z,9.42
2022-09-23T21:10:24.944Z,9.56
2022-09-23T21:13:17.894Z,9.55
2022-09-23T21:15:44.897Z,9.54
2022-09-23T21:19:30.199Z,10.01
2022-09-23T21:21:56.019Z,9.34
2022-09-23T21:34:48.014Z,9.50
2022-09-23T21:38:39.143Z,9.74
2022-09-23T21:51:01.231Z,9.54
2022-09-23T22:01:29.087Z,10.02
2022-09-23T22:04:42.474Z,10.16
2022-09-23T22:10:02.230Z,9.93
2022-09-23T22:12:31.827Z,10.02
2022-09-23T22:15:00.778Z,10.09
2022-09-23T22:17:31.685Z,9.86
2022-09-23T22:20:02.262Z,10.10
2022-09-23T22:22:29.053Z,9.72
2022-09-23T22:24:55.829Z,10.09
2022-09-23T22:27:24.008Z,9.60
2022-09-23T22:30:09.506Z,9.71
2022-09-23T22:32:45.024Z,10.17
2022-09-23T22:35:19.869Z,9.80
2022-09-23T22:37:48.119Z,9.76
2022-09-23T22:40:15.971Z,9.93
2022-09-23T22:42:43.840Z,10.09
2022-09-23T22:45:11.894Z,9.88
2022-09-23T22:47:45.822Z,10.13
2022-09-23T22:50:14.653Z,9.81
2022-09-23T22:52:49.481Z,9.78
2022-09-23T22:55:25.568Z,9.73
2022-09-23T22:58:21.233Z,9.87
2022-09-23T23:00:48.683Z,9.73
2022-09-23T23:03:26.822Z,9.80
2022-09-23T23:06:00.021Z,9.72
2022-09-23T23:08:32.631Z,9.90
2022-09-23T23:11:05.440Z,9.73
2022-09-23T23:13:32.976Z,9.90
2022-09-23T23:16:05.003Z,9.72
2022-09-23T23:18:39.666Z,9.77
2022-09-23T23:21:17.437Z,9.81
2022-09-23T23:23:47.701Z,9.83
2022-09-23T23:26:20.876Z,9.87
2022-09-23T23:28:49.781Z,9.71
2022-09-23T23:31:21.658Z,9.87
2022-09-23T23:33:51.856Z,10.06
2022-09-23T23:36:22.120Z,9.84
2022-09-23T23:38:51.795Z,9.98
2022-09-23T23:48:52.173Z,9.91
2022-09-23T23:52:29.639Z,9.82
2022-09-23T23:55:13.203Z,9.49
